Time;durP1;ratioP1;P1;durP2;ratioP2;P2;SDS_P1;SDS_P2;PMS_P1;PMS_P2;Temp;Humidity;BMP_temperature;BMP_pressure;BME280_temperature;BME280_humidity;BME280_pressure;Samples;Min_cycle;Max_cycle;Signal;HPM_P1;HPM_P2
2022/09/23 00:00:34;;;;;;;5.20;1.73;;;;;;;;;;4983944;28;20042;-68
2022/09/23 00:03:01;;;;;;;7.40;2.22;;;;;;;;;;4975338;28;20054;-67
2022/09/23 00:05:28;;;;;;;6.65;1.60;;;;;;;;;;4981742;28;21478;-66
2022/09/23 00:07:55;;;;;;;8.85;2.05;;;;;;;;;;4984071;28;21705;-67
2022/09/23 00:10:23;;;;;;;11.38;1.90;;;;;;;;;;4980578;28;20570;-67
2022/09/23 00:12:50;;;;;;;7.43;1.77;;;;;;;;;;4995220;28;20333;-67
2022/09/23 00:15:17;;;;;;;6.32;1.63;;;;;;;;;;4982769;28;20101;-68
2022/09/23 00:17:44;;;;;;;4.75;1.70;;;;;;;;;;4983142;28;20059;-67
2022/09/23 00:20:11;;;;;;;5.07;1.67;;;;;;;;;;4994553;28;20034;-67
2022/09/23 00:22:38;;;;;;;6.30;1.50;;;;;;;;;;4982799;28;20592;-66
2022/09/23 00:25:08;;;;;;;8.57;1.35;;;;;;;;;;4987585;28;20050;-66
2022/09/23 00:27:35;;;;;;;10.07;1.75;;;;;;;;;;4991828;28;20084;-66
2022/09/23 00:30:01;;;;;;;4.60;1.73;;;;;;;;;;4982374;28;20447;-66
2022/09/23 00:32:28;;;;;;;5.93;1.55;;;;;;;;;;4981423;28;20204;-66
2022/09/23 00:34:55;;;;;;;4.05;1.70;;;;;;;;;;4985712;28;20034;-66
2022/09/23 00:37:21;;;;;;;5.78;1.65;;;;;;;;;;4984302;28;20499;-67
2022/09/23 00:39:48;;;;;;;6.53;1.65;;;;;;;;;;4982273;28;20046;-66
2022/09/23 00:42:16;;;;;;;7.22;2.10;;;;;;;;;;4982653;28;20040;-66
2022/09/23 00:44:45;;;;;;;8.48;1.92;;;;;;;;;;4981687;28;20039;-66
2022/09/23 00:47:18;;;;;;;9.85;2.10;;;;;;;;;;4981472;28;20045;-66
2022/09/23 00:49:46;;;;;;;5.50;1.92;;;;;;;;;;4984700;28;20042;-66
2022/09/23 00:52:15;;;;;;;4.90;1.67;;;;;;;;;;4981159;28;20225;-66
2022/09/23 00:54:42;;;;;;;5.90;2.00;;;;;;;;;;4981086;28;20046;-66
2022/09/23 00:57:10;;;;;;;6.00;1.75;;;;;;;;;;4983765;28;20057;-66
2022/09/23 00:59:37;;;;;;;4.90;1.70;;;;;;;;;;4984683;28;20185;-66
2022/09/23 01:02:04;;;;;;;10.18;2.00;;;;;;;;;;4984675;28;20053;-65
2022/09/23 01:04:31;;;;;;;7.50;1.88;;;;;;;;;;4983695;28;20042;-64
2022/09/23 01:06:58;;;;;;;4.63;2.05;;;;;;;;;;4982444;28;20043;-62
2022/09/23 01:09:25;;;;;;;4.78;1.98;;;;;;;;;;4980455;28;20073;-65
2022/09/23 01:12:04;;;;;;;6.50;2.30;;;;;;;;;;4984464;28;20050;-66
2022/09/23 01:14:48;;;;;;;5.53;2.10;;;;;;;;;;4983339;28;20467;-67
2022/09/23 01:17:27;;;;;;;6.35;1.85;;;;;;;;;;4984276;28;20050;-66
2022/09/23 01:20:06;;;;;;;4.25;1.88;;;;;;;;;;4983080;28;20553;-67
2022/09/23 01:22:38;;;;;;;5.63;1.90;;;;;;;;;;4982641;28;20042;-65
2022/09/23 01:25:23;;;;;;;9.32;2.15;;;;;;;;;;4983233;28;20161;-66
2022/09/23 01:27:52;;;;;;;11.25;2.08;;;;;;;;;;4981704;28;20077;-66
2022/09/23 01:30:31;;;;;;;5.90;2.00;;;;;;;;;;4984735;28;20030;-67
2022/09/23 01:33:04;;;;;;;5.22;1.60;;;;;;;;;;4981708;28;20045;-66
2022/09/23 01:35:46;;;;;;;9.73;2.00;;;;;;;;;;4982734;28;20050;-63
2022/09/23 01:38:23;;;;;;;5.40;2.55;;;;;;;;;;4980371;28;20322;-62
2022/09/23 01:40:50;;;;;;;6.65;1.83;;;;;;;;;;4979771;28;20047;-66
2022/09/23 01:43:36;;;;;;;4.30;1.90;;;;;;;;;;4978850;28;20526;-68
2022/09/23 01:46:07;;;;;;;10.57;2.17;;;;;;;;;;4968272;28;20131;-66
2022/09/23 01:48:38;;;;;;;6.38;1.60;;;;;;;;;;4957033;28;20682;-66
2022/09/23 01:51:06;;;;;;;7.88;2.05;;;;;;;;;;4958658;28;20381;-67
2022/09/23 01:53:41;;;;;;;7.68;2.15;;;;;;;;;;4957734;28;20527;-67
2022/09/23 01:56:20;;;;;;;5.95;2.00;;;;;;;;;;4954575;28;20050;-67
2022/09/23 01:59:01;;;;;;;4.75;1.95;;;;;;;;;;4981711;28;20102;-66
2022/09/23 02:01:38;;;;;;;10.27;2.60;;;;;;;;;;4980852;28;20244;-66
2022/09/23 02:04:11;;;;;;;10.40;2.20;;;;;;;;;;4995763;28;20046;-68
2022/09/23 02:06:42;;;;;;;4.72;2.00;;;;;;;;;;4972567;28;20069;-67
2022/09/23 02:09:14;;;;;;;8.40;1.83;;;;;;;;;;4980157;28;20038;-66
2022/09/23 02:12:04;;;;;;;12.35;2.30;;;;;;;;;;5013314;28;20068;-67
2022/09/23 02:14:33;;;;;;;8.75;2.22;;;;;;;;;;5006500;28;20060;-67
2022/09/23 02:17:02;;;;;;;7.60;2.30;;;;;;;;;;5014904;28;21017;-66
2022/09/23 02:19:29;;;;;;;13.27;2.28;;;;;;;;;;5016010;28;20081;-66
2022/09/23 02:22:04;;;;;;;10.32;2.42;;;;;;;;;;5019139;28;20047;-66
2022/09/23 02:24:33;;;;;;;9.65;2.15;;;;;;;;;;5019905;28;20056;-66
2022/09/23 02:27:17;;;;;;;5.55;2.38;;;;;;;;;;5017385;28;20585;-67
2022/09/23 02:30:01;;;;;;;9.07;2.42;;;;;;;;;;5018851;28;20041;-66
2022/09/23 02:32:34;;;;;;;5.40;2.30;;;;;;;;;;5016962;28;20037;-65
2022/09/23 02:35:01;;;;;;;13.20;2.80;;;;;;;;;;5021790;28;20619;-65
2022/09/23 02:37:36;;;;;;;6.55;2.35;;;;;;;;;;5019030;28;20054;-64
2022/09/23 02:40:13;;;;;;;14.13;2.63;;;;;;;;;;5021176;28;20812;-67
2022/09/23 02:42:45;;;;;;;9.73;2.75;;;;;;;;;;5008927;28;20531;-67
2022/09/23 02:45:11;;;;;;;13.00;2.53;;;;;;;;;;4989287;28;20054;-67
2022/09/23 02:47:40;;;;;;;9.52;2.70;;;;;;;;;;4985339;28;20045;-66
2022/09/23 02:50:08;;;;;;;9.52;2.13;;;;;;;;;;4990539;28;20034;-67
2022/09/23 02:52:36;;;;;;;8.00;2.47;;;;;;;;;;4989988;28;20038;-66
2022/09/23 02:55:03;;;;;;;9.93;2.25;;;;;;;;;;4989293;28;20053;-64
2022/09/23 02:57:30;;;;;;;6.78;2.30;;;;;;;;;;4987491;28;20069;-65
2022/09/23 02:59:57;;;;;;;5.88;2.10;;;;;;;;;;4987710;28;20798;-65
2022/09/23 03:02:42;;;;;;;5.50;2.00;;;;;;;;;;4985437;28;20038;-67
2022/09/23 03:05:29;;;;;;;7.00;1.92;;;;;;;;;;4997837;28;20494;-66
2022/09/23 03:08:06;;;;;;;12.77;2.90;;;;;;;;;;4984818;28;20053;-66
2022/09/23 03:10:44;;;;;;;8.13;2.30;;;;;;;;;;4993685;28;20423;-66
2022/09/23 03:13:14;;;;;;;8.00;2.40;;;;;;;;;;4986371;28;20069;-67
2022/09/23 03:15:51;;;;;;;7.10;2.63;;;;;;;;;;4988018;28;20066;-69
2022/09/23 03:18:30;;;;;;;9.95;3.00;;;;;;;;;;4984910;28;20046;-67
2022/09/23 03:21:23;;;;;;;12.70;2.83;;;;;;;;;;4985981;28;20381;-66
2022/09/23 03:23:50;;;;;;;11.85;2.67;;;;;;;;;;4969753;28;20047;-66
2022/09/23 03:26:27;;;;;;;10.50;3.10;;;;;;;;;;4962288;28;20512;-66
2022/09/23 03:28:54;;;;;;;10.48;3.05;;;;;;;;;;4967775;28;20301;-65
2022/09/23 03:31:21;;;;;;;9.73;2.95;;;;;;;;;;4961512;28;20042;-66
2022/09/23 03:33:52;;;;;;;8.65;3.00;;;;;;;;;;4961985;28;20042;-66
2022/09/23 03:39:12;;;;;;;11.18;3.67;;;;;;;;;;4957842;28;20049;-63
2022/09/23 03:41:49;;;;;;;11.43;4.53;;;;;;;;;;4961992;28;20050;-66
2022/09/23 03:44:18;;;;;;;8.30;3.25;;;;;;;;;;4957314;28;20061;-68
2022/09/23 03:46:48;;;;;;;13.75;3.75;;;;;;;;;;4970153;28;20043;-68
2022/09/23 03:49:27;;;;;;;9.52;3.22;;;;;;;;;;4958170;28;20208;-65
2022/09/23 03:51:54;;;;;;;8.30;3.35;;;;;;;;;;4980560;28;20066;-66
2022/09/23 03:54:21;;;;;;;12.65;3.60;;;;;;;;;;4982753;28;20038;-66
2022/09/23 03:56:48;;;;;;;9.98;3.38;;;;;;;;;;4994009;28;20054;-66
2022/09/23 03:59:15;;;;;;;12.57;3.25;;;;;;;;;;4983034;28;20035;-65
2022/09/23 04:01:43;;;;;;;10.07;3.13;;;;;;;;;;4982671;28;20117;-67
2022/09/23 04:04:10;;;;;;;8.52;3.42;;;;;;;;;;4994414;28;20042;-67
2022/09/23 04:06:36;;;;;;;10.05;3.40;;;;;;;;;;4981106;28;21895;-66
2022/09/23 04:09:03;;;;;;;11.73;3.10;;;;;;;;;;4983192;28;20045;-66
2022/09/23 04:11:30;;;;;;;9.27;3.08;;;;;;;;;;4979608;28;20112;-66
2022/09/23 04:13:56;;;;;;;9.77;3.08;;;;;;;;;;4990658;28;20081;-66
2022/09/23 04:16:23;;;;;;;9.68;3.20;;;;;;;;;;4982187;28;20133;-66
2022/09/23 04:18:50;;;;;;;13.05;3.00;;;;;;;;;;4982269;28;20530;-67
2022/09/23 04:21:16;;;;;;;6.85;2.97;;;;;;;;;;4982501;28;20053;-67
2022/09/23 04:23:44;;;;;;;9.70;2.83;;;;;;;;;;4981600;28;20422;-63
2022/09/23 04:26:11;;;;;;;14.07;3.38;;;;;;;;;;4994129;28;20061;-66
2022/09/23 04:28:38;;;;;;;8.50;3.20;;;;;;;;;;4981575;28;20038;-65
2022/09/23 04:31:05;;;;;;;8.52;3.25;;;;;;;;;;4983799;28;20038;-65
2022/09/23 04:33:32;;;;;;;13.15;3.53;;;;;;;;;;4981272;28;20137;-66
2022/09/23 04:35:58;;;;;;;12.75;3.70;;;;;;;;;;4983976;28;20041;-64
2022/09/23 04:38:25;;;;;;;11.18;3.15;;;;;;;;;;4981746;28;20056;-66
2022/09/23 04:40:52;;;;;;;10.77;3.33;;;;;;;;;;4983476;28;20031;-66
2022/09/23 04:43:22;;;;;;;12.75;3.60;;;;;;;;;;4984568;28;20038;-66
2022/09/23 04:45:59;;;;;;;8.05;3.60;;;;;;;;;;4975505;28;20043;-67
2022/09/23 04:48:25;;;;;;;11.85;3.75;;;;;;;;;;4969887;28;20049;-66
2022/09/23 04:50:52;;;;;;;12.55;3.72;;;;;;;;;;4990205;28;20053;-65
2022/09/23 04:53:20;;;;;;;10.15;3.35;;;;;;;;;;4958645;28;20077;-65
2022/09/23 04:55:46;;;;;;;13.90;3.33;;;;;;;;;;4959006;28;20049;-65
2022/09/23 04:58:13;;;;;;;10.90;3.65;;;;;;;;;;4959087;28;20078;-63
2022/09/23 05:00:39;;;;;;;10.30;3.67;;;;;;;;;;4956829;28;20151;-65
2022/09/23 05:03:06;;;;;;;11.85;3.63;;;;;;;;;;4957655;28;21815;-65
2022/09/23 05:05:33;;;;;;;9.73;3.90;;;;;;;;;;4957068;28;20049;-66
2022/09/23 05:08:00;;;;;;;7.70;3.30;;;;;;;;;;4959167;28;20043;-65
2022/09/23 05:10:26;;;;;;;7.88;3.38;;;;;;;;;;4955975;28;20097;-66
2022/09/23 05:12:53;;;;;;;9.57;3.58;;;;;;;;;;4960349;28;20051;-65
2022/09/23 05:15:20;;;;;;;13.85;4.78;;;;;;;;;;4959639;28;20042;-66
2022/09/23 05:17:46;;;;;;;8.95;4.40;;;;;;;;;;4967114;28;20050;-65
2022/09/23 05:20:13;;;;;;;11.23;4.13;;;;;;;;;;4957886;28;20114;-64
2022/09/23 05:22:39;;;;;;;15.23;4.63;;;;;;;;;;4957242;28;20047;-65
2022/09/23 05:25:06;;;;;;;10.07;4.28;;;;;;;;;;4959163;28;20046;-65
2022/09/23 05:27:33;;;;;;;11.45;4.93;;;;;;;;;;4957612;28;20092;-64
2022/09/23 05:30:00;;;;;;;9.65;4.45;;;;;;;;;;4958293;28;20046;-65
2022/09/23 05:32:26;;;;;;;11.77;4.85;;;;;;;;;;4959068;28;20106;-65
2022/09/23 05:34:54;;;;;;;11.52;4.68;;;;;;;;;;4958741;28;20046;-65
2022/09/23 05:37:22;;;;;;;9.32;4.75;;;;;;;;;;4955969;28;20106;-65
2022/09/23 05:39:48;;;;;;;10.65;4.38;;;;;;;;;;4958616;28;20035;-64
2022/09/23 05:42:19;;;;;;;9.50;4.95;;;;;;;;;;4957065;28;20492;-65
2022/09/23 05:44:46;;;;;;;8.95;5.05;;;;;;;;;;4979621;28;20418;-66
2022/09/23 05:47:13;;;;;;;13.48;4.57;;;;;;;;;;4980284;28;20069;-66
2022/09/23 05:49:40;;;;;;;13.88;4.78;;;;;;;;;;4978661;28;20423;-66
2022/09/23 05:52:06;;;;;;;11.50;4.78;;;;;;;;;;4982589;28;20557;-64
2022/09/23 05:54:33;;;;;;;13.10;4.60;;;;;;;;;;4984114;28;20050;-65
2022/09/23 05:56:59;;;;;;;11.50;4.68;;;;;;;;;;4983700;28;20049;-65
2022/09/23 05:59:26;;;;;;;11.75;4.45;;;;;;;;;;4984093;28;20945;-65
2022/09/23 06:01:52;;;;;;;13.55;4.28;;;;;;;;;;4982742;28;20499;-64
2022/09/23 06:04:19;;;;;;;13.07;4.55;;;;;;;;;;4982715;28;20046;-65
2022/09/23 06:06:45;;;;;;;11.95;4.50;;;;;;;;;;4968275;28;21044;-64
2022/09/23 06:09:13;;;;;;;11.40;3.95;;;;;;;;;;4962015;28;20133;-65
2022/09/23 06:11:41;;;;;;;9.75;4.00;;;;;;;;;;4959268;28;20089;-65
2022/09/23 06:14:11;;;;;;;11.13;3.88;;;;;;;;;;4959909;28;20046;-65
2022/09/23 06:16:37;;;;;;;8.30;3.78;;;;;;;;;;4958519;28;20061;-65
2022/09/23 06:19:04;;;;;;;11.23;4.22;;;;;;;;;;4960280;28;20046;-65
2022/09/23 06:21:31;;;;;;;9.88;4.30;;;;;;;;;;4957518;28;20490;-66
2022/09/23 06:24:01;;;;;;;13.45;3.95;;;;;;;;;;4960888;28;20074;-64
2022/09/23 06:26:31;;;;;;;7.70;4.13;;;;;;;;;;4959870;28;20050;-67
2022/09/23 06:28:58;;;;;;;12.00;4.07;;;;;;;;;;4975773;28;20146;-64
2022/09/23 06:31:24;;;;;;;10.43;3.83;;;;;;;;;;4961788;28;20131;-65
2022/09/23 06:33:51;;;;;;;6.60;3.63;;;;;;;;;;4961200;28;20041;-65
2022/09/23 06:36:18;;;;;;;10.07;4.50;;;;;;;;;;4960820;28;20054;-65
2022/09/23 06:38:47;;;;;;;8.65;3.60;;;;;;;;;;4958659;28;20043;-65
2022/09/23 06:41:14;;;;;;;6.22;3.35;;;;;;;;;;4960205;28;20893;-63
2022/09/23 06:43:40;;;;;;;9.77;3.67;;;;;;;;;;4959567;28;20042;-64
2022/09/23 06:46:08;;;;;;;8.48;3.75;;;;;;;;;;4960243;28;20499;-65
2022/09/23 06:48:34;;;;;;;7.90;3.58;;;;;;;;;;4958473;28;20042;-64
2022/09/23 06:51:02;;;;;;;14.85;3.97;;;;;;;;;;4962345;28;20041;-65
2022/09/23 06:53:31;;;;;;;11.98;3.45;;;;;;;;;;4960740;28;20057;-65
2022/09/23 06:55:59;;;;;;;6.93;3.63;;;;;;;;;;4962301;28;20500;-65
2022/09/23 06:58:25;;;;;;;7.20;3.28;;;;;;;;;;4959550;28;20069;-66
2022/09/23 07:00:52;;;;;;;7.43;3.65;;;;;;;;;;4963090;28;20039;-66
2022/09/23 07:03:21;;;;;;;9.65;4.10;;;;;;;;;;4961042;28;20115;-65
2022/09/23 07:05:47;;;;;;;9.32;4.43;;;;;;;;;;4975107;28;20151;-66
2022/09/23 07:08:15;;;;;;;13.38;3.97;;;;;;;;;;4982790;28;20061;-65
2022/09/23 07:10:41;;;;;;;13.20;4.28;;;;;;;;;;4981270;28;20081;-66
2022/09/23 07:13:08;;;;;;;13.38;4.25;;;;;;;;;;4983220;28;20058;-66
2022/09/23 07:15:35;;;;;;;11.57;4.07;;;;;;;;;;4983084;28;20673;-66
2022/09/23 07:18:01;;;;;;;11.05;4.60;;;;;;;;;;4982723;28;20046;-66
2022/09/23 07:20:28;;;;;;;9.27;4.25;;;;;;;;;;4982618;28;20050;-66
2022/09/23 07:22:55;;;;;;;12.43;4.43;;;;;;;;;;4981845;28;20096;-65
2022/09/23 07:25:22;;;;;;;10.60;4.10;;;;;;;;;;4994376;28;20046;-65
2022/09/23 07:27:48;;;;;;;13.38;4.15;;;;;;;;;;4982861;28;20038;-64
2022/09/23 07:30:15;;;;;;;12.27;4.25;;;;;;;;;;4982865;28;20112;-65
2022/09/23 07:32:42;;;;;;;11.82;3.95;;;;;;;;;;4982555;28;20038;-64
2022/09/23 07:35:10;;;;;;;12.55;3.92;;;;;;;;;;4998487;28;20034;-64
2022/09/23 07:37:37;;;;;;;10.93;3.97;;;;;;;;;;4981463;28;20074;-64
2022/09/23 07:40:03;;;;;;;11.18;3.92;;;;;;;;;;4982302;28;20039;-64
2022/09/23 07:42:30;;;;;;;6.70;3.88;;;;;;;;;;4980939;28;20046;-65
2022/09/23 07:44:57;;;;;;;12.10;3.80;;;;;;;;;;4994891;28;20044;-64
2022/09/23 07:47:24;;;;;;;8.93;3.88;;;;;;;;;;4981049;28;20821;-65
2022/09/23 07:49:53;;;;;;;7.85;3.80;;;;;;;;;;4982960;28;20396;-64
2022/09/23 07:52:19;;;;;;;8.75;3.45;;;;;;;;;;4981732;28;20048;-64
2022/09/23 07:54:47;;;;;;;8.35;3.63;;;;;;;;;;4981980;28;20483;-64
2022/09/23 07:57:14;;;;;;;10.55;3.90;;;;;;;;;;4981598;28;20049;-65
2022/09/23 07:59:42;;;;;;;7.78;3.35;;;;;;;;;;4981174;28;20046;-64
2022/09/23 08:02:09;;;;;;;7.65;3.47;;;;;;;;;;4994118;28;20038;-65
2022/09/23 08:04:36;;;;;;;8.93;4.22;;;;;;;;;;4982045;28;21471;-65
2022/09/23 08:07:04;;;;;;;8.07;3.40;;;;;;;;;;4982107;28;20042;-64
2022/09/23 08:09:40;;;;;;;7.18;3.40;;;;;;;;;;4983071;28;20049;-65
2022/09/23 08:12:17;;;;;;;6.20;3.25;;;;;;;;;;4983295;28;20128;-65
2022/09/23 08:14:44;;;;;;;9.43;3.70;;;;;;;;;;4967595;28;20039;-65
2022/09/23 08:17:11;;;;;;;7.63;3.75;;;;;;;;;;4959344;28;20050;-63
2022/09/23 08:19:38;;;;;;;9.25;3.85;;;;;;;;;;4961164;28;20043;-63
2022/09/23 08:22:05;;;;;;;10.20;3.85;;;;;;;;;;4959678;28;20043;-64
2022/09/23 08:24:31;;;;;;;7.18;3.30;;;;;;;;;;4958814;28;20046;-64
2022/09/23 08:26:58;;;;;;;11.18;3.70;;;;;;;;;;4959378;28;20043;-64
2022/09/23 08:29:25;;;;;;;7.35;3.42;;;;;;;;;;4958359;28;20769;-64
2022/09/23 08:31:52;;;;;;;6.55;3.17;;;;;;;;;;4990812;28;20054;-64
2022/09/23 08:34:20;;;;;;;13.98;3.50;;;;;;;;;;4988839;28;20513;-65
2022/09/23 08:36:47;;;;;;;8.30;3.55;;;;;;;;;;4974353;28;20058;-65
2022/09/23 08:39:14;;;;;;;7.78;3.25;;;;;;;;;;4983653;28;20035;-65
2022/09/23 08:41:53;;;;;;;9.88;3.63;;;;;;;;;;4982568;28;20335;-65
2022/09/23 08:44:24;;;;;;;8.45;3.15;;;;;;;;;;4980766;28;20176;-66
2022/09/23 08:47:06;;;;;;;6.75;2.80;;;;;;;;;;4982692;28;20037;-65
2022/09/23 08:49:38;;;;;;;12.02;3.40;;;;;;;;;;4993395;28;20472;-64
2022/09/23 08:52:28;;;;;;;5.72;2.85;;;;;;;;;;4983171;28;20955;-65
2022/09/23 08:54:54;;;;;;;8.50;2.97;;;;;;;;;;4972293;28;20140;-65
2022/09/23 08:57:32;;;;;;;5.85;2.60;;;;;;;;;;4981181;28;20058;-65
2022/09/23 09:00:00;;;;;;;6.28;2.47;;;;;;;;;;4981928;28;20107;-65
2022/09/23 09:02:27;;;;;;;8.40;3.13;;;;;;;;;;4982100;28;20128;-65
2022/09/23 09:04:55;;;;;;;6.57;2.75;;;;;;;;;;4981691;28;20983;-65
2022/09/23 09:07:28;;;;;;;8.80;2.65;;;;;;;;;;4992809;28;20450;-65
2022/09/23 09:09:57;;;;;;;6.53;2.27;;;;;;;;;;4981778;28;20046;-65
2022/09/23 09:12:32;;;;;;;4.25;2.00;;;;;;;;;;4980422;28;20057;-65
2022/09/23 09:15:06;;;;;;;5.57;2.05;;;;;;;;;;4981340;28;20610;-65
2022/09/23 09:17:37;;;;;;;5.55;2.13;;;;;;;;;;4977230;28;20057;-64
2022/09/23 09:20:12;;;;;;;8.65;2.38;;;;;;;;;;4994302;28;20034;-63
2022/09/23 09:22:47;;;;;;;9.02;2.50;;;;;;;;;;4979133;28;20053;-65
2022/09/23 09:25:32;;;;;;;8.15;2.63;;;;;;;;;;4983777;28;20078;-65
2022/09/23 09:27:59;;;;;;;12.80;2.60;;;;;;;;;;4993645;28;20123;-63
2022/09/23 09:30:25;;;;;;;9.00;2.25;;;;;;;;;;4982624;28;20147;-64
2022/09/23 09:32:57;;;;;;;6.50;2.67;;;;;;;;;;4981944;28;20043;-65
2022/09/23 09:35:24;;;;;;;7.90;2.58;;;;;;;;;;4982463;28;20042;-63
2022/09/23 09:37:51;;;;;;;4.45;1.80;;;;;;;;;;4981670;28;20089;-64
2022/09/23 09:40:19;;;;;;;4.90;1.92;;;;;;;;;;4981421;28;20042;-64
2022/09/23 09:42:49;;;;;;;7.13;2.00;;;;;;;;;;4979649;28;20038;-64
2022/09/23 09:45:34;;;;;;;6.95;2.00;;;;;;;;;;4982894;28;20042;-64
2022/09/23 09:48:16;;;;;;;8.25;2.33;;;;;;;;;;4965704;28;20383;-66
2022/09/23 09:50:49;;;;;;;3.75;1.95;;;;;;;;;;4961097;28;20039;-65
2022/09/23 09:53:17;;;;;;;4.85;1.85;;;;;;;;;;4958711;28;20043;-64
2022/09/23 09:55:47;;;;;;;6.15;1.85;;;;;;;;;;4976041;28;20034;-64
2022/09/23 09:58:15;;;;;;;6.43;2.00;;;;;;;;;;4981508;28;20050;-66
2022/09/23 10:00:43;;;;;;;4.55;1.75;;;;;;;;;;4982286;28;21694;-66
2022/09/23 10:03:12;;;;;;;5.65;2.03;;;;;;;;;;4982721;28;20038;-64
2022/09/23 10:05:45;;;;;;;5.07;1.70;;;;;;;;;;4982456;28;20050;-64
2022/09/23 10:08:23;;;;;;;4.57;1.67;;;;;;;;;;4983117;28;20444;-63
2022/09/23 10:10:59;;;;;;;5.88;1.63;;;;;;;;;;4967144;28;20046;-64
2022/09/23 10:13:28;;;;;;;6.97;1.67;;;;;;;;;;4970686;28;20046;-64
2022/09/23 10:15:55;;;;;;;5.05;1.60;;;;;;;;;;4960668;28;20102;-63
2022/09/23 10:18:28;;;;;;;3.20;1.17;;;;;;;;;;4957490;28;20051;-64
2022/09/23 10:21:06;;;;;;;5.20;1.70;;;;;;;;;;4960008;28;20090;-64
2022/09/23 10:23:32;;;;;;;3.67;1.58;;;;;;;;;;4956752;28;20412;-65
2022/09/23 10:26:01;;;;;;;4.75;1.25;;;;;;;;;;4958884;28;20134;-65
2022/09/23 10:28:46;;;;;;;5.53;1.55;;;;;;;;;;4957935;28;20035;-66
2022/09/23 10:31:14;;;;;;;9.18;1.27;;;;;;;;;;4959048;28;20539;-65
2022/09/23 10:34:01;;;;;;;3.85;1.58;;;;;;;;;;4956711;28;20567;-66
2022/09/23 10:36:28;;;;;;;3.58;1.40;;;;;;;;;;4958528;28;20082;-66
2022/09/23 10:46:37;;;;;;;3.67;1.55;;;;;;;;;;4993053;28;20045;-66
2022/09/23 10:47:21;;;;;;;3.63;1.45;;;;;;;;;;4962872;28;20078;-65
2022/09/23 10:49:51;;;;;;;7.57;1.70;;;;;;;;;;4965328;28;20046;-68
2022/09/23 10:52:18;;;;;;;3.90;1.40;;;;;;;;;;4965306;28;20523;-66
2022/09/23 10:55:03;;;;;;;4.38;1.48;;;;;;;;;;4984645;28;20039;-65
2022/09/23 10:57:45;;;;;;;8.20;1.80;;;;;;;;;;4986901;28;20053;-66
2022/09/23 11:00:22;;;;;;;5.93;1.60;;;;;;;;;;4998081;28;20042;-65
2022/09/23 11:03:08;;;;;;;3.47;1.27;;;;;;;;;;4969893;28;20043;-64
2022/09/23 11:05:54;;;;;;;10.70;1.63;;;;;;;;;;4986176;28;20141;-63
2022/09/23 11:08:31;;;;;;;3.45;1.50;;;;;;;;;;4983857;28;20062;-64
2022/09/23 11:11:08;;;;;;;7.15;1.50;;;;;;;;;;4962911;28;20047;-66
2022/09/23 11:13:58;;;;;;;4.13;1.35;;;;;;;;;;4960979;28;20039;-65
2022/09/23 11:16:35;;;;;;;7.85;1.88;;;;;;;;;;4962568;28;20099;-66
2022/09/23 11:19:21;;;;;;;4.38;1.40;;;;;;;;;;4962283;28;20069;-64
2022/09/23 11:21:55;;;;;;;3.58;1.42;;;;;;;;;;4991434;28;20053;-66
2022/09/23 11:24:31;;;;;;;4.00;1.30;;;;;;;;;;4961023;28;20118;-65
2022/09/23 11:27:02;;;;;;;4.68;1.50;;;;;;;;;;4961690;28;20045;-65
2022/09/23 11:29:29;;;;;;;3.50;1.27;;;;;;;;;;4960498;28;20043;-65
2022/09/23 11:31:56;;;;;;;3.20;1.23;;;;;;;;;;4959185;28;20104;-64
2022/09/23 11:34:29;;;;;;;7.53;1.50;;;;;;;;;;4990830;28;20469;-65
2022/09/23 11:37:02;;;;;;;4.15;1.20;;;;;;;;;;4961114;28;20055;-67
2022/09/23 11:39:37;;;;;;;4.05;1.40;;;;;;;;;;4959840;28;20042;-64
2022/09/23 11:42:08;;;;;;;2.90;1.25;;;;;;;;;;4964581;28;20129;-65
2022/09/23 11:44:43;;;;;;;8.00;1.70;;;;;;;;;;4961602;28;20049;-65
2022/09/23 11:47:36;;;;;;;5.32;1.30;;;;;;;;;;4962931;28;20069;-66
2022/09/23 11:50:08;;;;;;;3.50;1.40;;;;;;;;;;4982926;28;20045;-65
2022/09/23 11:52:38;;;;;;;4.25;1.25;;;;;;;;;;4983557;28;20049;-64
2022/09/23 11:55:23;;;;;;;7.43;1.55;;;;;;;;;;4985242;28;20034;-66
2022/09/23 11:57:51;;;;;;;6.00;1.40;;;;;;;;;;4984668;28;20108;-64
2022/09/23 12:00:19;;;;;;;6.95;1.60;;;;;;;;;;4984918;28;20731;-65
2022/09/23 12:02:49;;;;;;;5.80;1.52;;;;;;;;;;4983630;28;20069;-65
2022/09/23 12:05:19;;;;;;;3.10;1.30;;;;;;;;;;4987298;28;20419;-62
2022/09/23 12:07:52;;;;;;;4.07;1.92;;;;;;;;;;4985668;28;20085;-64
2022/09/23 12:10:20;;;;;;;3.38;1.20;;;;;;;;;;4997645;28;20049;-63
2022/09/23 12:13:03;;;;;;;3.63;1.40;;;;;;;;;;4969895;28;20094;-61
2022/09/23 12:15:29;;;;;;;;;;;;;;;;;;4961799;28;20058;-62
2022/09/23 12:18:08;;;;;;;5.80;1.40;;;;;;;;;;4965065;28;19930;-63
2022/09/23 12:20:34;;;;;;;4.45;1.50;;;;;;;;;;4964722;28;20070;-64
2022/09/23 12:23:12;;;;;;;3.63;1.33;;;;;;;;;;4962348;28;20681;-64
2022/09/23 12:25:46;;;;;;;5.20;1.73;;;;;;;;;;4958388;28;20587;-65
2022/09/23 12:28:28;;;;;;;5.45;1.52;;;;;;;;;;4958868;28;20043;-66
2022/09/23 12:30:56;;;;;;;5.97;1.45;;;;;;;;;;4960347;28;20706;-67
2022/09/23 12:33:26;;;;;;;5.30;1.60;;;;;;;;;;4958158;28;20047;-63
2022/09/23 12:36:03;;;;;;;8.32;1.60;;;;;;;;;;4987908;28;20097;-64
2022/09/23 12:38:35;;;;;;;4.82;1.40;;;;;;;;;;4959162;28;20090;-65
2022/09/23 12:41:07;;;;;;;4.57;1.42;;;;;;;;;;4959156;28;20138;-65
2022/09/23 12:43:34;;;;;;;7.43;1.58;;;;;;;;;;4988542;28;20509;-65
2022/09/23 12:46:19;;;;;;;3.78;1.27;;;;;;;;;;4959130;28;20139;-67
2022/09/23 12:48:47;;;;;;;5.03;1.70;;;;;;;;;;4958043;28;20512;-66
2022/09/23 12:51:22;;;;;;;7.90;1.65;;;;;;;;;;4959825;28;20077;-67
2022/09/23 12:53:49;;;;;;;4.55;1.40;;;;;;;;;;4964984;28;20039;-65
2022/09/23 12:56:18;;;;;;;5.13;1.27;;;;;;;;;;4964561;28;20130;-65
2022/09/23 12:58:44;;;;;;;4.50;1.50;;;;;;;;;;4994450;28;20034;-65
2022/09/23 13:01:14;;;;;;;7.55;1.77;;;;;;;;;;4983777;28;20183;-65
2022/09/23 13:06:39;;;;;;;5.07;1.60;;;;;;;;;;4978276;28;20061;-63
2022/09/23 13:09:19;;;;;;;5.10;1.60;;;;;;;;;;4981398;28;20046;-62
2022/09/23 13:11:46;;;;;;;3.65;1.42;;;;;;;;;;4968805;28;20054;-65
2022/09/23 13:14:16;;;;;;;3.22;1.40;;;;;;;;;;4990422;28;20038;-64
2022/09/23 13:16:44;;;;;;;7.18;1.80;;;;;;;;;;4976618;28;20065;-65
2022/09/23 13:19:40;;;;;;;8.95;1.70;;;;;;;;;;4981608;28;20099;-64
2022/09/23 13:22:07;;;;;;;3.00;1.27;;;;;;;;;;4908754;28;20498;-64
2022/09/23 13:24:39;;;;;;;4.63;1.60;;;;;;;;;;4957818;28;20062;-65
2022/09/23 13:27:12;;;;;;;10.27;1.80;;;;;;;;;;4957850;28;20049;-65
2022/09/23 13:29:51;;;;;;;4.38;1.67;;;;;;;;;;4957261;28;20153;-65
2022/09/23 13:32:19;;;;;;;5.68;1.42;;;;;;;;;;4958053;28;20066;-64
2022/09/23 13:34:47;;;;;;;6.95;1.58;;;;;;;;;;4969380;28;20038;-65
2022/09/23 13:37:19;;;;;;;4.45;1.80;;;;;;;;;;4970489;28;20483;-65
2022/09/23 13:39:45;;;;;;;5.78;1.77;;;;;;;;;;4981857;28;20030;-64
2022/09/23 13:42:25;;;;;;;7.60;2.00;;;;;;;;;;4980982;28;20583;-65
2022/09/23 13:44:56;;;;;;;5.82;1.90;;;;;;;;;;4956031;28;20068;-64
2022/09/23 13:47:27;;;;;;;4.78;1.73;;;;;;;;;;4956873;28;20109;-65
2022/09/23 13:49:54;;;;;;;6.13;1.70;;;;;;;;;;4989048;28;20039;-65
2022/09/23 13:52:28;;;;;;;4.03;1.52;;;;;;;;;;4956850;28;20077;-66
2022/09/23 13:54:55;;;;;;;8.45;1.90;;;;;;;;;;4958286;28;20459;-65
2022/09/23 13:57:29;;;;;;;5.00;1.88;;;;;;;;;;4957711;28;20051;-65
2022/09/23 14:00:14;;;;;;;6.35;1.73;;;;;;;;;;4957344;28;20042;-64
2022/09/23 14:02:45;;;;;;;8.02;1.92;;;;;;;;;;4957029;28;20054;-65
2022/09/23 14:05:13;;;;;;;4.50;1.70;;;;;;;;;;4956784;28;20043;-65
2022/09/23 14:07:40;;;;;;;7.38;1.90;;;;;;;;;;4956960;28;20054;-65
2022/09/23 14:10:06;;;;;;;5.78;1.92;;;;;;;;;;4958583;28;20058;-65
2022/09/23 14:12:38;;;;;;;4.25;1.83;;;;;;;;;;4957124;28;20058;-65
2022/09/23 14:15:05;;;;;;;4.95;1.85;;;;;;;;;;4960335;28;20428;-65
2022/09/23 14:17:32;;;;;;;4.78;1.77;;;;;;;;;;4962606;28;20102;-65
2022/09/23 14:19:59;;;;;;;4.38;1.85;;;;;;;;;;4961063;28;20266;-65
2022/09/23 14:22:26;;;;;;;7.13;1.67;;;;;;;;;;4960398;28;20043;-66
2022/09/23 14:24:54;;;;;;;6.10;1.58;;;;;;;;;;4963164;28;20035;-65
2022/09/23 14:27:30;;;;;;;7.28;1.80;;;;;;;;;;4961545;28;20609;-65
2022/09/23 14:29:57;;;;;;;6.93;1.80;;;;;;;;;;4962747;28;20125;-65
2022/09/23 14:32:27;;;;;;;7.65;1.90;;;;;;;;;;4993583;28;20066;-65
2022/09/23 14:35:02;;;;;;;6.07;1.70;;;;;;;;;;4993543;28;20102;-64
2022/09/23 14:40:25;;;;;;;4.40;1.88;;;;;;;;;;4962512;28;20065;-64
2022/09/23 14:43:10;;;;;;;5.03;1.48;;;;;;;;;;4961431;28;20057;-64
2022/09/23 14:45:39;;;;;;;5.30;1.77;;;;;;;;;;4959085;28;20039;-65
2022/09/23 14:48:08;;;;;;;4.03;1.63;;;;;;;;;;4963569;28;20043;-65
2022/09/23 14:50:55;;;;;;;9.25;1.90;;;;;;;;;;4974186;28;20106;-65
2022/09/23 14:53:22;;;;;;;5.03;1.95;;;;;;;;;;4966599;28;20095;-65
2022/09/23 14:55:56;;;;;;;6.55;1.75;;;;;;;;;;4972405;28;20130;-64
2022/09/23 14:58:25;;;;;;;13.70;1.90;;;;;;;;;;4972705;28;20049;-63
2022/09/23 15:00:53;;;;;;;3.95;1.52;;;;;;;;;;4971749;28;20043;-65
2022/09/23 15:03:20;;;;;;;4.65;1.52;;;;;;;;;;4963629;28;20049;-65
2022/09/23 15:05:48;;;;;;;5.43;1.80;;;;;;;;;;4975467;28;20069;-64
2022/09/23 15:08:21;;;;;;;4.18;1.83;;;;;;;;;;4971154;28;20082;-66
2022/09/23 15:10:48;;;;;;;7.35;1.80;;;;;;;;;;4950592;28;20150;-65
2022/09/23 15:13:17;;;;;;;5.00;1.63;;;;;;;;;;4946530;28;20145;-65
2022/09/23 15:15:44;;;;;;;5.80;1.75;;;;;;;;;;4960821;28;20771;-65